createdAt,value
2022-09-11T00:01:35.322Z,100.00
2022-09-11T00:04:03.835Z,100.00
2022-09-11T00:06:31.157Z,100.00
2022-09-11T00:09:05.705Z,100.00
2022-09-11T00:11:41.969Z,100.00
2022-09-11T00:14:14.681Z,100.00
2022-09-11T00:16:46.174Z,100.00
2022-09-11T00:19:19.075Z,100.00
2022-09-11T00:21:47.701Z,100.00
2022-09-11T00:24:14.899Z,100.00
2022-09-11T00:26:42.409Z,100.00
2022-09-11T00:29:10.944Z,100.00
2022-09-11T00:31:38.628Z,100.00
2022-09-11T00:34:07.047Z,100.00
2022-09-11T00:36:36.277Z,100.00
2022-09-11T00:39:03.900Z,100.00
2022-09-11T00:41:40.384Z,100.00
2022-09-11T00:44:12.052Z,100.00
2022-09-11T00:46:53.204Z,100.00
2022-09-11T00:49:46.599Z,100.00
2022-09-11T00:52:31.305Z,100.00
2022-09-11T00:55:12.146Z,100.00
2022-09-11T00:58:06.906Z,100.00
2022-09-11T01:00:35.121Z,100.00
2022-09-11T01:03:03.533Z,100.00
2022-09-11T01:05:34.697Z,100.00
2022-09-11T01:08:03.778Z,100.00
2022-09-11T01:11:23.478Z,100.00
2022-09-11T01:14:05.225Z,100.00
2022-09-11T01:16:49.860Z,100.00
2022-09-11T01:19:53.520Z,100.00
2022-09-11T01:23:17.394Z,100.00
2022-09-11T01:26:22.400Z,100.00
2022-09-11T01:29:20.864Z,100.00
2022-09-11T01:32:29.237Z,100.00
2022-09-11T01:35:21.137Z,100.00
2022-09-11T01:38:11.674Z,100.00
2022-09-11T01:40:51.256Z,100.00
2022-09-11T01:43:33.057Z,100.00
2022-09-11T01:46:07.289Z,100.00
2022-09-11T01:48:50.903Z,100.00
2022-09-11T01:51:26.712Z,100.00
2022-09-11T01:53:54.284Z,100.00
2022-09-11T01:56:34.264Z,100.00
2022-09-11T01:59:07.542Z,100.00
2022-09-11T02:01:42.476Z,100.00
2022-09-11T02:04:30.956Z,100.00
2022-09-11T02:07:14.332Z,100.00
2022-09-11T02:09:53.987Z,100.00
2022-09-11T02:12:31.346Z,100.00
2022-09-11T02:14:59.517Z,100.00
2022-09-11T02:17:56.308Z,100.00
2022-09-11T02:20:29.092Z,100.00
2022-09-11T02:22:56.916Z,100.00
2022-09-11T02:25:24.933Z,100.00
2022-09-11T02:27:56.291Z,100.00
2022-09-11T02:30:23.788Z,100.00
2022-09-11T02:32:51.103Z,100.00
2022-09-11T02:35:18.437Z,100.00
2022-09-11T02:38:30.172Z,100.00
2022-09-11T02:42:12.403Z,100.00
2022-09-11T02:45:34.369Z,100.00
2022-09-11T02:48:43.261Z,100.00
2022-09-11T02:51:48.272Z,100.00
2022-09-11T02:54:57.007Z,100.00
2022-09-11T02:57:39.470Z,100.00
2022-09-11T03:00:09.769Z,100.00
2022-09-11T03:02:42.995Z,100.00
2022-09-11T03:05:11.888Z,100.00
2022-09-11T03:07:41.452Z,100.00
2022-09-11T03:10:11.173Z,100.00
2022-09-11T03:12:39.998Z,100.00
2022-09-11T03:15:10.346Z,100.00
2022-09-11T03:17:37.805Z,100.00
2022-09-11T03:20:07.054Z,100.00
2022-09-11T03:22:34.421Z,100.00
2022-09-11T03:25:03.765Z,100.00
2022-09-11T03:27:31.926Z,100.00
2022-09-11T03:30:00.154Z,100.00
2022-09-11T03:32:27.309Z,100.00
2022-09-11T03:34:57.072Z,100.00
2022-09-11T03:37:24.501Z,100.00
2022-09-11T03:39:54.668Z,100.00
2022-09-11T03:42:22.270Z,100.00
2022-09-11T03:44:49.478Z,100.00
2022-09-11T03:47:16.873Z,100.00
2022-09-11T03:49:44.014Z,100.00
2022-09-11T03:52:11.902Z,100.00
2022-09-11T03:54:39.854Z,100.00
2022-09-11T03:57:07.452Z,100.00
2022-09-11T03:59:39.102Z,100.00
2022-09-11T04:02:06.430Z,100.00
2022-09-11T04:04:34.253Z,100.00
2022-09-11T04:07:01.448Z,100.00
2022-09-11T04:09:29.257Z,100.00
2022-09-11T04:11:58.497Z,100.00
2022-09-11T04:14:28.055Z,100.00
2022-09-11T04:16:59.444Z,100.00
2022-09-11T04:19:29.368Z,100.00
2022-09-11T04:21:57.006Z,100.00
2022-09-11T04:24:25.672Z,100.00
2022-09-11T04:26:55.311Z,100.00
2022-09-11T04:29:28.772Z,100.00
2022-09-11T04:31:57.753Z,100.00
2022-09-11T04:34:29.181Z,100.00
2022-09-11T04:36:57.173Z,100.00
2022-09-11T04:39:26.196Z,100.00
2022-09-11T04:41:54.474Z,100.00
2022-09-11T04:44:21.855Z,100.00
2022-09-11T04:46:49.278Z,100.00
2022-09-11T04:49:18.001Z,100.00
2022-09-11T04:51:47.121Z,100.00
2022-09-11T04:54:23.626Z,100.00
2022-09-11T04:56:51.908Z,100.00
2022-09-11T04:59:23.438Z,100.00
2022-09-11T05:01:56.735Z,100.00
2022-09-11T05:04:26.346Z,100.00
2022-09-11T05:06:55.538Z,100.00
2022-09-11T05:09:25.477Z,100.00
2022-09-11T05:11:54.462Z,100.00
2022-09-11T05:14:23.555Z,100.00
2022-09-11T05:16:52.947Z,100.00
2022-09-11T05:19:25.253Z,100.00
2022-09-11T05:21:52.777Z,100.00
2022-09-11T05:24:20.343Z,100.00
2022-09-11T05:26:47.760Z,100.00
2022-09-11T05:29:16.621Z,100.00
2022-09-11T05:31:49.806Z,100.00
2022-09-11T05:34:22.232Z,100.00
2022-09-11T05:36:52.049Z,100.00
2022-09-11T05:39:19.569Z,100.00
2022-09-11T05:41:55.367Z,100.00
2022-09-11T05:44:25.365Z,100.00
2022-09-11T05:46:53.158Z,100.00
2022-09-11T05:49:21.714Z,100.00
2022-09-11T05:51:49.246Z,100.00
2022-09-11T05:54:16.707Z,100.00
2022-09-11T05:56:45.202Z,100.00
2022-09-11T05:59:20.518Z,100.00
2022-09-11T06:01:50.331Z,100.00
2022-09-11T06:04:31.976Z,100.00
2022-09-11T06:07:01.646Z,100.00
2022-09-11T06:09:29.906Z,100.00
2022-09-11T06:11:57.356Z,100.00
2022-09-11T06:14:25.165Z,100.00
2022-09-11T06:16:56.927Z,100.00
2022-09-11T06:19:25.481Z,100.00
2022-09-11T06:21:52.729Z,100.00
2022-09-11T06:24:33.492Z,100.00
2022-09-11T06:27:00.747Z,100.00
2022-09-11T06:29:31.132Z,100.00
2022-09-11T06:31:59.901Z,100.00
2022-09-11T06:34:30.264Z,100.00
2022-09-11T06:36:59.553Z,100.00
2022-09-11T06:39:26.958Z,100.00
2022-09-11T06:41:54.916Z,100.00
2022-09-11T06:44:28.248Z,100.00
2022-09-11T06:46:59.713Z,100.00
2022-09-11T06:49:27.503Z,100.00
2022-09-11T06:52:13.270Z,100.00
2022-09-11T06:54:45.654Z,100.00
2022-09-11T06:57:15.704Z,100.00
2022-09-11T06:59:43.160Z,100.00
2022-09-11T07:02:10.770Z,100.00
2022-09-11T07:04:38.788Z,100.00
2022-09-11T07:07:07.319Z,100.00
2022-09-11T07:09:36.484Z,100.00
2022-09-11T07:12:04.019Z,100.00
2022-09-11T07:14:32.831Z,100.00
2022-09-11T07:17:09.378Z,100.00
2022-09-11T07:19:39.692Z,100.00
2022-09-11T07:22:07.021Z,100.00
2022-09-11T07:24:35.297Z,100.00
2022-09-11T07:27:02.533Z,100.00
2022-09-11T07:29:34.439Z,100.00
2022-09-11T07:32:02.165Z,100.00
2022-09-11T07:34:32.215Z,100.00
2022-09-11T07:37:04.505Z,100.00
2022-09-11T07:39:34.506Z,100.00
2022-09-11T07:42:07.370Z,100.00
2022-09-11T07:44:36.026Z,100.00
2022-09-11T07:47:04.114Z,100.00
2022-09-11T07:49:36.148Z,100.00
2022-09-11T07:52:05.200Z,100.00
2022-09-11T07:54:43.861Z,100.00
2022-09-11T07:57:12.474Z,100.00
2022-09-11T07:59:40.436Z,100.00
2022-09-11T08:02:11.638Z,100.00
2022-09-11T08:04:39.121Z,100.00
2022-09-11T08:07:06.777Z,100.00
2022-09-11T08:09:35.723Z,100.00
2022-09-11T08:12:05.209Z,100.00
2022-09-11T08:14:36.917Z,100.00
2022-09-11T08:17:13.622Z,100.00
2022-09-11T08:19:41.390Z,100.00
2022-09-11T08:22:08.974Z,100.00
2022-09-11T08:24:46.143Z,100.00
2022-09-11T08:27:18.113Z,100.00
2022-09-11T08:29:46.926Z,100.00
2022-09-11T08:32:14.736Z,100.00
2022-09-11T08:34:42.684Z,100.00
2022-09-11T08:37:10.523Z,100.00
2022-09-11T08:39:38.446Z,100.00
2022-09-11T08:42:16.073Z,100.00
2022-09-11T08:44:51.424Z,100.00
2022-09-11T08:47:41.421Z,100.00
2022-09-11T08:50:39.987Z,100.00
2022-09-11T08:53:17.040Z,100.00
2022-09-11T08:55:57.258Z,100.00
2022-09-11T08:59:04.227Z,100.00
2022-09-11T09:01:47.207Z,100.00
2022-09-11T09:04:32.993Z,100.00
2022-09-11T09:08:04.509Z,100.00
2022-09-11T09:10:57.131Z,100.00
2022-09-11T09:14:02.771Z,100.00
2022-09-11T09:17:04.519Z,100.00
2022-09-11T09:20:00.600Z,100.00
2022-09-11T09:22:39.612Z,100.00
2022-09-11T09:25:17.061Z,100.00
2022-09-11T09:27:50.102Z,100.00
2022-09-11T09:30:24.427Z,100.00
2022-09-11T09:33:39.036Z,100.00
2022-09-11T09:36:19.288Z,100.00
2022-09-11T09:38:46.842Z,100.00
2022-09-11T09:42:20.265Z,100.00
2022-09-11T09:45:07.279Z,100.00
2022-09-11T09:47:37.056Z,100.00
2022-09-11T09:50:05.473Z,100.00
2022-09-11T09:52:35.967Z,100.00
2022-09-11T09:55:16.277Z,100.00
2022-09-11T09:57:44.229Z,100.00
2022-09-11T10:00:17.888Z,100.00
2022-09-11T10:02:57.931Z,100.00
2022-09-11T10:05:35.155Z,100.00
2022-09-11T10:08:07.336Z,100.00
2022-09-11T10:10:40.577Z,100.00
2022-09-11T10:13:25.332Z,100.00
2022-09-11T10:15:57.284Z,100.00
2022-09-11T10:18:30.820Z,100.00
2022-09-11T10:21:13.303Z,100.00
2022-09-11T10:23:58.081Z,100.00
2022-09-11T10:26:50.505Z,100.00
2022-09-11T10:29:30.712Z,100.00
2022-09-11T10:32:05.347Z,100.00
2022-09-11T10:34:40.371Z,100.00
2022-09-11T10:37:16.034Z,93.00
2022-09-11T10:39:47.341Z,95.15
2022-09-11T10:42:35.175Z,98.42
2022-09-11T10:45:17.105Z,97.85
2022-09-11T10:47:48.449Z,94.72
2022-09-11T10:50:23.195Z,93.35
2022-09-11T10:53:20.620Z,94.88
2022-09-11T10:56:03.393Z,100.00
2022-09-11T10:58:38.665Z,98.07
2022-09-11T11:01:06.209Z,90.17
2022-09-11T11:03:33.577Z,83.58
2022-09-11T11:06:26.110Z,75.24
2022-09-11T11:09:17.324Z,69.80
2022-09-11T11:12:09.752Z,67.89
2022-09-11T11:14:57.878Z,75.03
2022-09-11T11:17:45.140Z,69.73
2022-09-11T11:20:51.775Z,64.22
2022-09-11T11:23:51.791Z,61.29
2022-09-11T11:27:14.044Z,58.17
2022-09-11T11:30:17.142Z,59.30
2022-09-11T11:33:53.585Z,54.15
2022-09-11T11:37:19.936Z,53.50
2022-09-11T11:40:27.872Z,56.61
2022-09-11T11:43:17.519Z,58.56
2022-09-11T11:45:56.105Z,60.35
2022-09-11T11:48:52.388Z,59.71
2022-09-11T11:51:34.893Z,59.13
2022-09-11T11:54:27.234Z,59.83
2022-09-11T11:57:10.362Z,64.87
2022-09-11T11:59:54.612Z,63.70
2022-09-11T12:02:35.778Z,63.99
2022-09-11T12:05:24.550Z,63.17
2022-09-11T12:07:52.336Z,64.08
2022-09-11T12:10:44.933Z,66.33
2022-09-11T12:13:20.101Z,62.97
2022-09-11T12:16:29.059Z,60.69
2022-09-11T12:19:21.262Z,68.08
2022-09-11T12:21:54.902Z,63.83
2022-09-11T12:24:50.506Z,63.52
2022-09-11T12:27:36.272Z,60.57
2022-09-11T12:30:30.853Z,57.92
2022-09-11T12:33:01.314Z,56.51
2022-09-11T12:35:45.282Z,55.27
2022-09-11T12:38:38.045Z,54.73
2022-09-11T12:41:26.191Z,53.59
2022-09-11T12:43:54.657Z,53.68
2022-09-11T12:46:21.668Z,56.22
2022-09-11T12:49:17.831Z,57.40
2022-09-11T12:51:59.460Z,54.48
2022-09-11T12:54:42.362Z,53.75
2022-09-11T12:57:25.709Z,53.66
2022-09-11T13:00:00.537Z,52.50
2022-09-11T13:02:35.937Z,52.70
2022-09-11T13:05:37.775Z,52.72
2022-09-11T13:08:24.853Z,51.08
2022-09-11T13:10:52.157Z,49.11
2022-09-11T13:13:38.429Z,49.36
2022-09-11T13:16:29.267Z,50.32
2022-09-11T13:19:17.067Z,49.08
2022-09-11T13:21:45.869Z,48.73
2022-09-11T13:24:34.621Z,47.92
2022-09-11T13:27:24.530Z,48.16
2022-09-11T13:29:55.954Z,45.39
2022-09-11T13:32:23.787Z,45.49
2022-09-11T13:34:58.690Z,44.84
2022-09-11T13:37:42.227Z,41.43
2022-09-11T13:40:27.029Z,41.65
2022-09-11T13:42:55.135Z,43.00
2022-09-11T13:45:24.776Z,41.01
2022-09-11T13:47:54.685Z,40.52
2022-09-11T13:50:23.430Z,35.27
2022-09-11T13:52:53.543Z,35.66
2022-09-11T13:55:27.091Z,33.42
2022-09-11T13:58:23.157Z,31.44
2022-09-11T14:00:52.830Z,32.82
2022-09-11T14:03:31.464Z,31.41
2022-09-11T14:06:06.730Z,33.08
2022-09-11T14:08:42.528Z,31.82
2022-09-11T14:11:15.268Z,32.83
2022-09-11T14:14:10.379Z,34.62
2022-09-11T14:16:53.000Z,30.00
2022-09-11T14:19:28.596Z,30.90
2022-09-11T14:21:56.064Z,31.43
2022-09-11T14:24:37.365Z,30.08
2022-09-11T14:27:30.638Z,26.77
2022-09-11T14:29:58.185Z,28.02
2022-09-11T14:32:32.525Z,28.14
2022-09-11T14:35:10.020Z,27.27
2022-09-11T14:37:45.728Z,27.88
2022-09-11T14:40:19.264Z,26.36
2022-09-11T14:42:47.437Z,26.45
2022-09-11T14:45:25.846Z,25.63
2022-09-11T14:47:53.813Z,25.29
2022-09-11T14:50:21.752Z,25.93
2022-09-11T14:52:49.146Z,25.74
2022-09-11T14:55:20.118Z,27.60
2022-09-11T14:57:47.862Z,24.48
2022-09-11T15:00:19.821Z,25.21
2022-09-11T15:02:52.035Z,26.12
2022-09-11T15:05:22.925Z,26.37
2022-09-11T15:07:50.840Z,25.03
2022-09-11T15:10:18.535Z,24.47
2022-09-11T15:12:45.943Z,24.07
2022-09-11T15:15:17.679Z,24.55
2022-09-11T15:17:46.152Z,24.44
2022-09-11T15:20:13.541Z,24.76
2022-09-11T15:22:41.179Z,24.29
2022-09-11T15:25:08.620Z,23.30
2022-09-11T15:27:35.957Z,24.60
2022-09-11T15:30:04.821Z,24.60
2022-09-11T15:32:32.180Z,23.30
2022-09-11T15:34:59.465Z,24.73
2022-09-11T15:37:26.821Z,23.09
2022-09-11T15:39:54.050Z,23.67
2022-09-11T15:42:21.397Z,24.90
2022-09-11T15:44:50.565Z,24.33
2022-09-11T15:47:18.052Z,23.71
2022-09-11T15:49:47.555Z,24.07
2022-09-11T15:52:14.897Z,24.31
2022-09-11T15:54:42.805Z,22.61
2022-09-11T15:57:09.993Z,23.69
2022-09-11T15:59:37.280Z,23.97
2022-09-11T16:02:04.728Z,23.51
2022-09-11T16:04:32.236Z,23.30
2022-09-11T16:06:59.854Z,24.19
2022-09-11T16:09:31.365Z,24.34
2022-09-11T16:12:00.955Z,23.97
2022-09-11T16:14:35.232Z,24.00
2022-09-11T16:17:05.691Z,24.25
2022-09-11T16:19:33.789Z,25.00
2022-09-11T16:22:05.442Z,24.27
2022-09-11T16:24:37.372Z,23.58
2022-09-11T16:27:10.385Z,23.52
2022-09-11T16:30:09.421Z,24.62
2022-09-11T16:32:29.087Z,25.02
2022-09-11T16:34:57.869Z,25.86
2022-09-11T16:37:25.924Z,25.04
2022-09-11T16:39:53.251Z,25.70
2022-09-11T16:42:21.619Z,25.50
2022-09-11T16:44:50.145Z,25.10
2022-09-11T16:47:18.021Z,25.29
2022-09-11T16:50:05.879Z,26.08
2022-09-11T16:52:34.829Z,24.80
2022-09-11T16:55:02.255Z,25.53
2022-09-11T16:57:30.933Z,26.82
2022-09-11T16:59:58.176Z,27.12
2022-09-11T17:02:26.475Z,26.68
2022-09-11T17:04:53.661Z,27.17
2022-09-11T17:07:20.937Z,27.58
2022-09-11T17:09:48.368Z,27.89
2022-09-11T17:12:17.669Z,31.58
2022-09-11T17:14:45.005Z,32.95
2022-09-11T17:17:12.163Z,33.29
2022-09-11T17:19:39.595Z,34.32
2022-09-11T17:22:08.389Z,35.43
2022-09-11T17:24:36.321Z,35.26
2022-09-11T17:27:04.221Z,36.42
2022-09-11T17:29:31.416Z,36.75
2022-09-11T17:32:23.922Z,37.76
2022-09-11T17:34:47.638Z,37.89
2022-09-11T17:37:15.728Z,39.86
2022-09-11T17:39:43.318Z,40.12
2022-09-11T17:42:13.291Z,40.65
2022-09-11T17:44:43.492Z,40.93
2022-09-11T17:47:10.771Z,41.22
2022-09-11T17:49:38.099Z,41.72
2022-09-11T17:52:05.536Z,43.08
2022-09-11T17:54:32.865Z,44.82
2022-09-11T17:57:00.104Z,44.99
2022-09-11T17:59:27.680Z,46.95
2022-09-11T18:01:54.961Z,47.74
2022-09-11T18:04:22.499Z,49.56
2022-09-11T18:06:51.049Z,49.34
2022-09-11T18:09:19.875Z,49.80
2022-09-11T18:11:53.893Z,50.22
2022-09-11T18:14:22.884Z,51.12
2022-09-11T18:16:50.271Z,53.47
2022-09-11T18:19:22.375Z,54.63
2022-09-11T18:21:51.071Z,56.64
2022-09-11T18:24:20.543Z,62.98
2022-09-11T18:26:58.576Z,62.25
2022-09-11T18:29:30.375Z,64.07
2022-09-11T18:31:59.936Z,61.62
2022-09-11T18:34:28.559Z,63.60
2022-09-11T18:36:56.017Z,64.88
2022-09-11T18:39:23.876Z,63.18
2022-09-11T18:41:54.880Z,70.09
2022-09-11T18:44:25.101Z,69.70
2022-09-11T18:46:54.490Z,70.30
2022-09-11T18:49:22.624Z,72.33
2022-09-11T18:51:50.695Z,72.27
2022-09-11T18:54:21.014Z,72.14
2022-09-11T18:56:50.582Z,77.07
2022-09-11T18:59:20.092Z,76.10
2022-09-11T19:01:48.854Z,78.11
2022-09-11T19:04:16.794Z,76.80
2022-09-11T19:06:45.255Z,76.27
2022-09-11T19:09:13.379Z,76.21
2022-09-11T19:11:41.457Z,77.69
2022-09-11T19:14:12.503Z,78.83
2022-09-11T19:16:40.984Z,81.09
2022-09-11T19:19:09.389Z,84.67
2022-09-11T19:21:38.370Z,82.18
2022-09-11T19:24:08.730Z,81.98
2022-09-11T19:26:43.434Z,79.20
2022-09-11T19:29:15.863Z,78.58
2022-09-11T19:31:43.317Z,79.70
2022-09-11T19:34:13.231Z,78.38
2022-09-11T19:36:43.394Z,83.43
2022-09-11T19:39:11.408Z,86.76
2022-09-11T19:41:40.003Z,84.54
2022-09-11T19:44:13.042Z,88.20
2022-09-11T19:46:45.575Z,89.45
2022-09-11T19:49:13.501Z,93.58
2022-09-11T19:51:42.742Z,93.63
2022-09-11T19:54:13.300Z,97.38
2022-09-11T19:56:47.506Z,99.31
2022-09-11T19:59:15.190Z,100.00
2022-09-11T20:01:43.682Z,100.00
2022-09-11T20:04:15.938Z,94.86
2022-09-11T20:09:30.288Z,100.00
2022-09-11T20:12:00.621Z,100.00
2022-09-11T20:14:30.380Z,100.00
2022-09-11T20:17:00.887Z,100.00
2022-09-11T20:19:29.861Z,100.00
2022-09-11T20:21:57.422Z,100.00
2022-09-11T20:24:26.338Z,100.00
2022-09-11T20:26:54.732Z,100.00
2022-09-11T20:29:23.137Z,100.00
2022-09-11T20:31:51.145Z,99.55
2022-09-11T20:34:22.451Z,97.46
2022-09-11T20:36:49.683Z,96.76
2022-09-11T20:39:20.070Z,95.50
2022-09-11T20:41:49.584Z,95.28
2022-09-11T20:44:17.088Z,98.84
2022-09-11T20:46:47.511Z,99.15
2022-09-11T20:49:14.921Z,100.00
2022-09-11T20:51:42.919Z,100.00
2022-09-11T20:54:10.504Z,100.00
2022-09-11T20:56:37.826Z,100.00
2022-09-11T20:59:05.241Z,100.00
2022-09-11T21:01:33.956Z,100.00
2022-09-11T21:04:04.646Z,100.00
2022-09-11T21:06:35.232Z,100.00
2022-09-11T21:09:09.137Z,100.00
2022-09-11T21:11:38.366Z,100.00
2022-09-11T21:14:07.436Z,100.00
2022-09-11T21:16:35.099Z,100.00
2022-09-11T21:19:04.707Z,100.00
2022-09-11T21:21:35.091Z,100.00
2022-09-11T21:24:06.756Z,100.00
2022-09-11T21:26:34.856Z,100.00
2022-09-11T21:29:07.727Z,100.00
2022-09-11T21:31:36.154Z,100.00
2022-09-11T21:34:03.805Z,100.00
2022-09-11T21:36:32.223Z,100.00
2022-09-11T21:38:59.491Z,100.00
2022-09-11T21:41:26.674Z,100.00
2022-09-11T21:43:54.135Z,100.00
2022-09-11T21:46:21.427Z,100.00
2022-09-11T21:48:48.695Z,100.00
2022-09-11T21:51:19.941Z,100.00
2022-09-11T21:53:49.801Z,100.00
2022-09-11T21:56:29.474Z,100.00
2022-09-11T21:58:58.008Z,100.00
2022-09-11T22:01:27.528Z,100.00
2022-09-11T22:03:55.482Z,100.00
2022-09-11T22:06:24.398Z,100.00
2022-09-11T22:08:53.509Z,100.00
2022-09-11T22:11:21.826Z,100.00
2022-09-11T22:13:50.046Z,100.00
2022-09-11T22:16:20.203Z,100.00
2022-09-11T22:18:52.732Z,100.00
2022-09-11T22:21:20.295Z,100.00
2022-09-11T22:23:47.592Z,100.00
2022-09-11T22:26:20.379Z,100.00
2022-09-11T22:28:47.894Z,100.00
2022-09-11T22:31:21.108Z,100.00
2022-09-11T22:33:48.518Z,100.00
2022-09-11T22:36:21.235Z,100.00
2022-09-11T22:38:48.938Z,100.00
2022-09-11T22:41:17.338Z,100.00
2022-09-11T22:43:47.345Z,100.00
2022-09-11T22:46:16.219Z,100.00
2022-09-11T22:48:43.814Z,100.00
2022-09-11T22:51:11.510Z,100.00
2022-09-11T22:53:42.875Z,100.00
2022-09-11T22:56:10.609Z,100.00
2022-09-11T22:58:38.502Z,100.00
2022-09-11T23:01:10.222Z,100.00
2022-09-11T23:03:38.047Z,100.00
2022-09-11T23:06:24.364Z,100.00
2022-09-11T23:08:52.522Z,100.00
2022-09-11T23:11:20.401Z,100.00
2022-09-11T23:13:50.095Z,100.00
2022-09-11T23:16:22.670Z,100.00
2022-09-11T23:18:56.151Z,100.00
2022-09-11T23:21:25.097Z,100.00
2022-09-11T23:23:55.764Z,100.00
2022-09-11T23:26:25.150Z,100.00
2022-09-11T23:28:53.392Z,100.00
2022-09-11T23:31:28.833Z,100.00
2022-09-11T23:34:01.559Z,100.00
2022-09-11T23:36:30.325Z,100.00
2022-09-11T23:38:58.401Z,100.00
2022-09-11T23:41:26.399Z,100.00
2022-09-11T23:43:54.249Z,100.00
2022-09-11T23:46:21.843Z,100.00
2022-09-11T23:48:50.613Z,100.00
2022-09-11T23:51:17.895Z,100.00
2022-09-11T23:53:45.436Z,100.00
2022-09-11T23:56:15.021Z,100.00
2022-09-11T23:58:43.177Z,100.00
